sensor_id;sensor_type;location;lat;lon;timestamp;P1;durP1;ratioP1;P2;durP2;ratioP2
55710;SDS011;41612;51.994;5.880;2022-12-07T03:12:28;9.85;;;5.60;;
55710;SDS011;41612;51.994;5.880;2022-12-07T03:15:05;10.93;;;6.28;;
55710;SDS011;41612;51.994;5.880;2022-12-07T03:17:37;13.25;;;6.15;;
55710;SDS011;41612;51.994;5.880;2022-12-07T03:20:07;10.57;;;6.45;;
55710;SDS011;41612;51.994;5.880;2022-12-07T03:22:35;12.77;;;6.32;;
55710;SDS011;41612;51.994;5.880;2022-12-07T03:25:04;10.57;;;5.85;;
55710;SDS011;41612;51.994;5.880;2022-12-07T03:27:35;12.40;;;6.28;;
55710;SDS011;41612;51.994;5.880;2022-12-07T03:32:41;10.57;;;6.18;;
55710;SDS011;41612;51.994;5.880;2022-12-07T03:35:25;11.27;;;5.53;;
55710;SDS011;41612;51.994;5.880;2022-12-07T03:37:59;13.68;;;5.68;;
55710;SDS011;41612;51.994;5.880;2022-12-07T03:40:40;9.88;;;5.40;;
55710;SDS011;41612;51.994;5.880;2022-12-07T03:43:12;12.82;;;6.15;;
55710;SDS011;41612;51.994;5.880;2022-12-07T03:45:38;9.02;;;4.60;;
55710;SDS011;41612;51.994;5.880;2022-12-07T03:53:20;6.25;;;3.95;;
55710;SDS011;41612;51.994;5.880;2022-12-07T03:55:51;9.10;;;4.82;;
55710;SDS011;41612;51.994;5.880;2022-12-07T03:58:20;15.63;;;4.78;;
55710;SDS011;41612;51.994;5.880;2022-12-07T04:00:48;8.93;;;4.80;;
55710;SDS011;41612;51.994;5.880;2022-12-07T04:03:15;7.68;;;4.03;;
55710;SDS011;41612;51.994;5.880;2022-12-07T04:05:41;10.23;;;4.18;;
55710;SDS011;41612;51.994;5.880;2022-12-07T04:08:07;7.68;;;4.53;;
55710;SDS011;41612;51.994;5.880;2022-12-07T04:10:33;8.15;;;3.85;;
55710;SDS011;41612;51.994;5.880;2022-12-07T04:12:59;7.13;;;4.18;;
55710;SDS011;41612;51.994;5.880;2022-12-07T04:15:25;8.15;;;4.53;;
55710;SDS011;41612;51.994;5.880;2022-12-07T04:17:51;8.65;;;3.63;;
55710;SDS011;41612;51.994;5.880;2022-12-07T04:20:18;7.75;;;3.95;;
55710;SDS011;41612;51.994;5.880;2022-12-07T04:22:43;7.57;;;4.10;;
55710;SDS011;41612;51.994;5.880;2022-12-07T04:25:09;9.07;;;3.75;;
55710;SDS011;41612;51.994;5.880;2022-12-07T04:27:35;8.95;;;4.07;;
55710;SDS011;41612;51.994;5.880;2022-12-07T04:30:00;7.82;;;3.33;;
55710;SDS011;41612;51.994;5.880;2022-12-07T04:32:26;6.95;;;3.78;;
55710;SDS011;41612;51.994;5.880;2022-12-07T04:34:52;8.70;;;3.42;;
55710;SDS011;41612;51.994;5.880;2022-12-07T04:37:17;7.28;;;3.67;;
55710;SDS011;41612;51.994;5.880;2022-12-07T04:39:43;5.47;;;3.05;;
55710;SDS011;41612;51.994;5.880;2022-12-07T04:42:09;12.60;;;4.10;;
55710;SDS011;41612;51.994;5.880;2022-12-07T04:44:35;5.40;;;3.22;;
55710;SDS011;41612;51.994;5.880;2022-12-07T04:47:01;6.88;;;3.92;;
55710;SDS011;41612;51.994;5.880;2022-12-07T04:49:27;8.40;;;4.03;;
55710;SDS011;41612;51.994;5.880;2022-12-07T04:51:53;13.25;;;4.30;;
55710;SDS011;41612;51.994;5.880;2022-12-07T04:54:19;5.88;;;2.97;;
55710;SDS011;41612;51.994;5.880;2022-12-07T04:56:45;8.45;;;3.42;;
55710;SDS011;41612;51.994;5.880;2022-12-07T04:59:11;6.18;;;3.47;;
55710;SDS011;41612;51.994;5.880;2022-12-07T05:01:38;8.02;;;3.45;;
55710;SDS011;41612;51.994;5.880;2022-12-07T05:04:04;10.05;;;3.40;;
55710;SDS011;41612;51.994;5.880;2022-12-07T05:06:30;5.35;;;2.95;;
55710;SDS011;41612;51.994;5.880;2022-12-07T05:08:56;10.20;;;3.72;;
55710;SDS011;41612;51.994;5.880;2022-12-07T05:11:22;6.47;;;2.90;;
55710;SDS011;41612;51.994;5.880;2022-12-07T05:16:36;6.22;;;2.88;;
55710;SDS011;41612;51.994;5.880;2022-12-07T05:19:03;7.30;;;3.00;;
55710;SDS011;41612;51.994;5.880;2022-12-07T05:21:29;4.95;;;2.72;;
55710;SDS011;41612;51.994;5.880;2022-12-07T05:23:54;5.88;;;3.55;;
55710;SDS011;41612;51.994;5.880;2022-12-07T05:26:20;4.97;;;2.47;;
55710;SDS011;41612;51.994;5.880;2022-12-07T05:28:49;5.80;;;2.45;;
55710;SDS011;41612;51.994;5.880;2022-12-07T05:31:16;4.03;;;2.35;;
55710;SDS011;41612;51.994;5.880;2022-12-07T05:33:42;8.93;;;3.00;;
55710;SDS011;41612;51.994;5.880;2022-12-07T05:36:07;8.35;;;4.22;;
55710;SDS011;41612;51.994;5.880;2022-12-07T05:38:33;6.75;;;2.45;;
55710;SDS011;41612;51.994;5.880;2022-12-07T05:41:00;6.50;;;2.38;;
55710;SDS011;41612;51.994;5.880;2022-12-07T05:43:27;6.25;;;2.60;;
55710;SDS011;41612;51.994;5.880;2022-12-07T05:45:54;4.75;;;2.33;;
55710;SDS011;41612;51.994;5.880;2022-12-07T05:48:19;8.95;;;2.83;;
55710;SDS011;41612;51.994;5.880;2022-12-07T05:50:47;5.22;;;2.20;;
55710;SDS011;41612;51.994;5.880;2022-12-07T05:53:13;8.23;;;2.92;;
55710;SDS011;41612;51.994;5.880;2022-12-07T05:55:39;7.80;;;2.92;;
55710;SDS011;41612;51.994;5.880;2022-12-07T05:58:05;9.43;;;2.60;;
55710;SDS011;41612;51.994;5.880;2022-12-07T06:00:49;4.43;;;2.20;;
55710;SDS011;41612;51.994;5.880;2022-12-07T06:03:15;9.30;;;2.35;;
55710;SDS011;41612;51.994;5.880;2022-12-07T06:05:40;6.47;;;2.30;;
55710;SDS011;41612;51.994;5.880;2022-12-07T06:08:06;5.28;;;1.90;;
55710;SDS011;41612;51.994;5.880;2022-12-07T06:10:32;4.63;;;2.38;;
55710;SDS011;41612;51.994;5.880;2022-12-07T06:12:58;4.00;;;1.92;;
55710;SDS011;41612;51.994;5.880;2022-12-07T06:15:24;5.40;;;2.58;;
55710;SDS011;41612;51.994;5.880;2022-12-07T06:17:51;12.77;;;3.85;;
55710;SDS011;41612;51.994;5.880;2022-12-07T06:20:16;9.38;;;2.47;;
55710;SDS011;41612;51.994;5.880;2022-12-07T06:22:42;5.00;;;2.25;;
55710;SDS011;41612;51.994;5.880;2022-12-07T06:25:08;4.05;;;1.73;;
55710;SDS011;41612;51.994;5.880;2022-12-07T06:27:34;8.23;;;2.83;;
55710;SDS011;41612;51.994;5.880;2022-12-07T06:30:00;6.28;;;3.42;;
55710;SDS011;41612;51.994;5.880;2022-12-07T06:32:31;7.00;;;2.10;;
55710;SDS011;41612;51.994;5.880;2022-12-07T06:34:58;5.45;;;2.00;;
55710;SDS011;41612;51.994;5.880;2022-12-07T06:37:24;9.40;;;2.70;;
55710;SDS011;41612;51.994;5.880;2022-12-07T06:39:50;6.60;;;2.25;;
55710;SDS011;41612;51.994;5.880;2022-12-07T06:42:16;4.28;;;2.03;;
55710;SDS011;41612;51.994;5.880;2022-12-07T06:44:42;8.52;;;2.33;;
55710;SDS011;41612;51.994;5.880;2022-12-07T06:47:07;9.75;;;2.17;;
55710;SDS011;41612;51.994;5.880;2022-12-07T06:49:34;5.45;;;2.00;;
55710;SDS011;41612;51.994;5.880;2022-12-07T06:52:00;8.80;;;2.35;;
55710;SDS011;41612;51.994;5.880;2022-12-07T06:54:25;8.02;;;2.28;;
55710;SDS011;41612;51.994;5.880;2022-12-07T06:56:51;6.07;;;2.15;;
55710;SDS011;41612;51.994;5.880;2022-12-07T06:59:17;9.43;;;2.60;;
55710;SDS011;41612;51.994;5.880;2022-12-07T07:01:43;8.40;;;2.47;;
55710;SDS011;41612;51.994;5.880;2022-12-07T07:04:08;4.05;;;1.90;;
55710;SDS011;41612;51.994;5.880;2022-12-07T07:06:37;6.75;;;2.25;;
55710;SDS011;41612;51.994;5.880;2022-12-07T07:09:02;7.30;;;2.33;;
55710;SDS011;41612;51.994;5.880;2022-12-07T07:11:28;5.25;;;2.22;;
55710;SDS011;41612;51.994;5.880;2022-12-07T07:13:54;6.75;;;1.98;;
55710;SDS011;41612;51.994;5.880;2022-12-07T07:16:22;7.50;;;2.08;;
55710;SDS011;41612;51.994;5.880;2022-12-07T07:18:48;5.65;;;1.95;;
55710;SDS011;41612;51.994;5.880;2022-12-07T07:21:14;5.65;;;2.28;;
55710;SDS011;41612;51.994;5.880;2022-12-07T07:23:40;6.25;;;2.25;;
55710;SDS011;41612;51.994;5.880;2022-12-07T07:26:06;4.13;;;2.10;;
55710;SDS011;41612;51.994;5.880;2022-12-07T07:28:31;5.70;;;2.00;;
55710;SDS011;41612;51.994;5.880;2022-12-07T07:30:57;9.18;;;2.10;;
55710;SDS011;41612;51.994;5.880;2022-12-07T07:33:23;3.47;;;1.70;;
55710;SDS011;41612;51.994;5.880;2022-12-07T07:35:48;8.35;;;2.78;;
55710;SDS011;41612;51.994;5.880;2022-12-07T07:38:14;4.88;;;1.63;;
55710;SDS011;41612;51.994;5.880;2022-12-07T07:40:40;6.80;;;2.20;;
55710;SDS011;41612;51.994;5.880;2022-12-07T07:43:05;3.25;;;1.83;;
55710;SDS011;41612;51.994;5.880;2022-12-07T07:45:31;5.53;;;2.15;;
55710;SDS011;41612;51.994;5.880;2022-12-07T07:47:57;7.05;;;2.33;;
55710;SDS011;41612;51.994;5.880;2022-12-07T07:50:22;8.57;;;2.75;;
55710;SDS011;41612;51.994;5.880;2022-12-07T07:52:48;3.67;;;1.65;;
55710;SDS011;41612;51.994;5.880;2022-12-07T07:55:14;3.55;;;1.80;;
55710;SDS011;41612;51.994;5.880;2022-12-07T07:57:40;4.90;;;2.00;;
55710;SDS011;41612;51.994;5.880;2022-12-07T08:00:10;6.35;;;2.28;;
55710;SDS011;41612;51.994;5.880;2022-12-07T08:02:38;5.63;;;1.92;;
55710;SDS011;41612;51.994;5.880;2022-12-07T08:05:04;4.38;;;1.92;;
55710;SDS011;41612;51.994;5.880;2022-12-07T08:07:30;8.02;;;2.13;;
55710;SDS011;41612;51.994;5.880;2022-12-07T08:09:55;3.03;;;1.83;;
55710;SDS011;41612;51.994;5.880;2022-12-07T08:12:21;3.78;;;1.83;;
55710;SDS011;41612;51.994;5.880;2022-12-07T08:14:47;6.35;;;1.88;;
55710;SDS011;41612;51.994;5.880;2022-12-07T08:17:12;8.50;;;2.58;;
55710;SDS011;41612;51.994;5.880;2022-12-07T08:19:40;7.32;;;2.30;;
55710;SDS011;41612;51.994;5.880;2022-12-07T08:22:06;10.93;;;2.28;;
55710;SDS011;41612;51.994;5.880;2022-12-07T08:24:35;4.97;;;1.70;;
55710;SDS011;41612;51.994;5.880;2022-12-07T08:27:01;3.42;;;2.03;;
55710;SDS011;41612;51.994;5.880;2022-12-07T08:29:27;4.93;;;2.80;;
55710;SDS011;41612;51.994;5.880;2022-12-07T08:31:53;5.40;;;1.92;;
55710;SDS011;41612;51.994;5.880;2022-12-07T08:34:18;4.55;;;1.73;;
55710;SDS011;41612;51.994;5.880;2022-12-07T08:36:44;3.60;;;1.60;;
55710;SDS011;41612;51.994;5.880;2022-12-07T08:39:10;5.10;;;1.70;;
55710;SDS011;41612;51.994;5.880;2022-12-07T08:41:36;5.93;;;1.80;;
55710;SDS011;41612;51.994;5.880;2022-12-07T08:44:02;3.67;;;1.50;;
55710;SDS011;41612;51.994;5.880;2022-12-07T11:36:55;5.85;;;1.58;;
55710;SDS011;41612;51.994;5.880;2022-12-07T11:39:30;3.67;;;1.20;;
55710;SDS011;41612;51.994;5.880;2022-12-07T11:42:15;2.88;;;1.00;;
55710;SDS011;41612;51.994;5.880;2022-12-07T11:45:29;2.55;;;1.00;;
55710;SDS011;41612;51.994;5.880;2022-12-07T11:48:10;2.33;;;1.05;;
55710;SDS011;41612;51.994;5.880;2022-12-07T11:50:55;6.93;;;2.00;;
55710;SDS011;41612;51.994;5.880;2022-12-07T11:53:44;2.90;;;1.15;;
55710;SDS011;41612;51.994;5.880;2022-12-07T11:56:19;4.53;;;1.40;;
55710;SDS011;41612;51.994;5.880;2022-12-07T11:58:54;4.20;;;1.48;;
55710;SDS011;41612;51.994;5.880;2022-12-07T12:07:15;5.00;;;1.42;;
55710;SDS011;41612;51.994;5.880;2022-12-07T12:09:54;3.30;;;1.10;;
55710;SDS011;41612;51.994;5.880;2022-12-07T12:20:43;6.07;;;1.38;;
55710;SDS011;41612;51.994;5.880;2022-12-07T12:25:58;2.75;;;1.45;;
55710;SDS011;41612;51.994;5.880;2022-12-07T12:31:14;4.60;;;1.40;;
55710;SDS011;41612;51.994;5.880;2022-12-07T12:33:53;6.20;;;1.63;;
55710;SDS011;41612;51.994;5.880;2022-12-07T12:39:15;5.68;;;1.60;;
55710;SDS011;41612;51.994;5.880;2022-12-07T12:49:37;5.72;;;1.73;;
55710;SDS011;41612;51.994;5.880;2022-12-07T12:57:38;6.45;;;1.50;;
55710;SDS011;41612;51.994;5.880;2022-12-07T13:00:17;4.20;;;1.73;;
55710;SDS011;41612;51.994;5.880;2022-12-07T13:02:56;7.53;;;1.95;;
55710;SDS011;41612;51.994;5.880;2022-12-07T13:05:28;7.95;;;1.65;;
55710;SDS011;41612;51.994;5.880;2022-12-07T13:07:57;2.30;;;1.00;;
55710;SDS011;41612;51.994;5.880;2022-12-07T13:12:58;3.72;;;1.55;;
55710;SDS011;41612;51.994;5.880;2022-12-07T13:15:53;8.15;;;1.75;;
55710;SDS011;41612;51.994;5.880;2022-12-07T13:28:48;9.52;;;1.92;;
55710;SDS011;41612;51.994;5.880;2022-12-07T13:31:23;5.15;;;1.65;;
55710;SDS011;41612;51.994;5.880;2022-12-07T13:34:01;9.70;;;3.40;;
55710;SDS011;41612;51.994;5.880;2022-12-07T13:36:29;7.65;;;1.48;;
55710;SDS011;41612;51.994;5.880;2022-12-07T13:39:16;9.55;;;1.98;;
55710;SDS011;41612;51.994;5.880;2022-12-07T13:41:56;7.40;;;1.70;;
55710;SDS011;41612;51.994;5.880;2022-12-07T13:44:26;8.50;;;1.70;;
55710;SDS011;41612;51.994;5.880;2022-12-07T13:49:47;7.63;;;2.10;;
55710;SDS011;41612;51.994;5.880;2022-12-07T13:52:21;8.23;;;1.90;;
55710;SDS011;41612;51.994;5.880;2022-12-07T13:55:13;7.68;;;1.38;;
55710;SDS011;41612;51.994;5.880;2022-12-07T13:57:42;6.93;;;1.70;;
55710;SDS011;41612;51.994;5.880;2022-12-07T14:00:16;7.60;;;1.80;;
55710;SDS011;41612;51.994;5.880;2022-12-07T14:02:57;8.77;;;2.13;;
55710;SDS011;41612;51.994;5.880;2022-12-07T14:12:59;1.98;;;0.88;;
55710;SDS011;41612;51.994;5.880;2022-12-07T14:15:30;3.85;;;1.00;;
55710;SDS011;41612;51.994;5.880;2022-12-07T14:17:58;3.83;;;0.90;;
55710;SDS011;41612;51.994;5.880;2022-12-07T14:22:57;2.72;;;0.90;;
55710;SDS011;41612;51.994;5.880;2022-12-07T14:25:24;4.90;;;1.30;;
55710;SDS011;41612;51.994;5.880;2022-12-07T14:28:00;3.03;;;1.25;;
55710;SDS011;41612;51.994;5.880;2022-12-07T14:30:30;3.22;;;1.35;;
55710;SDS011;41612;51.994;5.880;2022-12-07T14:33:02;2.70;;;1.00;;
55710;SDS011;41612;51.994;5.880;2022-12-07T14:35:29;2.72;;;1.10;;
55710;SDS011;41612;51.994;5.880;2022-12-07T14:37:56;1.55;;;0.80;;
55710;SDS011;41612;51.994;5.880;2022-12-07T14:40:23;5.05;;;0.95;;
55710;SDS011;41612;51.994;5.880;2022-12-07T14:43:02;1.98;;;0.77;;
55710;SDS011;41612;51.994;5.880;2022-12-07T14:45:32;3.70;;;1.00;;
55710;SDS011;41612;51.994;5.880;2022-12-07T14:47:57;5.00;;;1.00;;
55710;SDS011;41612;51.994;5.880;2022-12-07T14:50:23;1.67;;;1.00;;
55710;SDS011;41612;51.994;5.880;2022-12-07T14:52:56;3.88;;;1.20;;
55710;SDS011;41612;51.994;5.880;2022-12-07T14:55:29;2.50;;;0.90;;
55710;SDS011;41612;51.994;5.880;2022-12-07T14:57:56;2.17;;;0.93;;
55710;SDS011;41612;51.994;5.880;2022-12-07T15:00:24;5.18;;;1.05;;
55710;SDS011;41612;51.994;5.880;2022-12-07T15:02:51;2.55;;;1.05;;
55710;SDS011;41612;51.994;5.880;2022-12-07T15:09:53;2.67;;;1.08;;
55710;SDS011;41612;51.994;5.880;2022-12-07T15:44:33;6.28;;;1.58;;
55710;SDS011;41612;51.994;5.880;2022-12-07T15:47:58;9.18;;;1.75;;
55710;SDS011;41612;51.994;5.880;2022-12-07T15:50:46;4.35;;;1.63;;
55710;SDS011;41612;51.994;5.880;2022-12-07T15:53:16;2.75;;;1.40;;
55710;SDS011;41612;51.994;5.880;2022-12-07T15:56:00;3.35;;;1.65;;
55710;SDS011;41612;51.994;5.880;2022-12-07T15:58:26;12.27;;;4.50;;
55710;SDS011;41612;51.994;5.880;2022-12-07T16:00:52;7.30;;;2.20;;
55710;SDS011;41612;51.994;5.880;2022-12-07T16:03:18;2.92;;;1.38;;
55710;SDS011;41612;51.994;5.880;2022-12-07T16:05:50;5.70;;;1.67;;
55710;SDS011;41612;51.994;5.880;2022-12-07T16:08:17;19.95;;;5.22;;
55710;SDS011;41612;51.994;5.880;2022-12-07T16:10:43;29.85;;;6.70;;
55710;SDS011;41612;51.994;5.880;2022-12-07T16:13:09;45.33;;;10.55;;
55710;SDS011;41612;51.994;5.880;2022-12-07T16:15:39;31.88;;;9.02;;
55710;SDS011;41612;51.994;5.880;2022-12-07T16:18:27;17.88;;;5.45;;
55710;SDS011;41612;51.994;5.880;2022-12-07T16:20:52;6.05;;;2.78;;
55710;SDS011;41612;51.994;5.880;2022-12-07T16:23:18;8.52;;;2.47;;
55710;SDS011;41612;51.994;5.880;2022-12-07T16:25:46;6.00;;;2.00;;
55710;SDS011;41612;51.994;5.880;2022-12-07T16:28:12;8.65;;;2.50;;
55710;SDS011;41612;51.994;5.880;2022-12-07T16:30:44;7.95;;;2.00;;
55710;SDS011;41612;51.994;5.880;2022-12-07T16:33:43;6.25;;;2.42;;
55710;SDS011;41612;51.994;5.880;2022-12-07T16:36:18;5.88;;;2.08;;
55710;SDS011;41612;51.994;5.880;2022-12-07T16:38:57;7.45;;;3.13;;
55710;SDS011;41612;51.994;5.880;2022-12-07T16:41:27;5.90;;;1.65;;
55710;SDS011;41612;51.994;5.880;2022-12-07T16:43:56;4.82;;;2.20;;
55710;SDS011;41612;51.994;5.880;2022-12-07T16:46:27;6.53;;;1.77;;
55710;SDS011;41612;51.994;5.880;2022-12-07T16:48:52;5.13;;;1.95;;
55710;SDS011;41612;51.994;5.880;2022-12-07T16:51:23;6.35;;;2.55;;
55710;SDS011;41612;51.994;5.880;2022-12-07T16:53:50;3.13;;;1.27;;
55710;SDS011;41612;51.994;5.880;2022-12-07T16:56:24;5.80;;;1.55;;
55710;SDS011;41612;51.994;5.880;2022-12-07T16:58:54;6.57;;;1.73;;
55710;SDS011;41612;51.994;5.880;2022-12-07T17:01:20;2.75;;;1.25;;
55710;SDS011;41612;51.994;5.880;2022-12-07T17:03:47;5.85;;;1.90;;
55710;SDS011;41612;51.994;5.880;2022-12-07T17:06:18;4.03;;;2.08;;
55710;SDS011;41612;51.994;5.880;2022-12-07T17:08:46;5.00;;;1.98;;
55710;SDS011;41612;51.994;5.880;2022-12-07T17:11:13;6.03;;;2.28;;
55710;SDS011;41612;51.994;5.880;2022-12-07T17:13:41;7.75;;;2.38;;
55710;SDS011;41612;51.994;5.880;2022-12-07T17:16:26;6.90;;;1.98;;
55710;SDS011;41612;51.994;5.880;2022-12-07T17:18:52;5.55;;;1.88;;
55710;SDS011;41612;51.994;5.880;2022-12-07T17:21:29;9.23;;;2.30;;
55710;SDS011;41612;51.994;5.880;2022-12-07T17:23:57;7.32;;;2.60;;
55710;SDS011;41612;51.994;5.880;2022-12-07T17:26:24;6.95;;;2.42;;
55710;SDS011;41612;51.994;5.880;2022-12-07T17:29:14;7.55;;;2.63;;
55710;SDS011;41612;51.994;5.880;2022-12-07T17:31:47;5.25;;;2.42;;
55710;SDS011;41612;51.994;5.880;2022-12-07T17:34:14;7.28;;;2.72;;
55710;SDS011;41612;51.994;5.880;2022-12-07T17:36:47;5.55;;;3.38;;
55710;SDS011;41612;51.994;5.880;2022-12-07T17:39:27;4.90;;;2.80;;
55710;SDS011;41612;51.994;5.880;2022-12-07T17:56:44;13.60;;;4.72;;
55710;SDS011;41612;51.994;5.880;2022-12-07T18:04:33;11.13;;;4.70;;
55710;SDS011;41612;51.994;5.880;2022-12-07T18:07:07;7.78;;;3.58;;
55710;SDS011;41612;51.994;5.880;2022-12-07T18:09:36;9.82;;;3.92;;
55710;SDS011;41612;51.994;5.880;2022-12-07T18:12:02;9.85;;;5.15;;
55710;SDS011;41612;51.994;5.880;2022-12-07T18:14:33;15.25;;;6.38;;
55710;SDS011;41612;51.994;5.880;2022-12-07T18:17:07;11.00;;;4.55;;
55710;SDS011;41612;51.994;5.880;2022-12-07T18:19:39;9.30;;;3.95;;
55710;SDS011;41612;51.994;5.880;2022-12-07T18:25:21;11.75;;;5.03;;
55710;SDS011;41612;51.994;5.880;2022-12-07T18:30:51;8.68;;;3.65;;
55710;SDS011;41612;51.994;5.880;2022-12-07T18:33:19;9.15;;;4.93;;
55710;SDS011;41612;51.994;5.880;2022-12-07T18:35:45;8.25;;;3.42;;
55710;SDS011;41612;51.994;5.880;2022-12-07T18:38:21;7.65;;;3.60;;
